Time;durP1;ratioP1;P1;durP2;ratioP2;P2;SDS_P1;SDS_P2;PMS_P1;PMS_P2;Temp;Humidity;BMP_temperature;BMP_pressure;BME280_temperature;BME280_humidity;BME280_pressure;Samples;Min_cycle;Max_cycle;Signal;HPM_P1;HPM_P2
2023/12/30 00:00:10;;;;;;;11.98;8.13;;;;;;;;;;6184625;23;20053;-66
2023/12/30 00:02:45;;;;;;;;;;;;;;;;;;6185360;23;20014;-66
2023/12/30 00:05:13;;;;;;;12.85;7.45;;;;;;;;;;6184727;23;19994;-66
2023/12/30 00:07:41;;;;;;;13.43;8.40;;;;;;;;;;6184508;23;20017;-65
2023/12/30 00:10:08;;;;;;;16.00;8.98;;;;;;;;;;6184802;23;20017;-66
2023/12/30 00:12:36;;;;;;;13.48;8.45;;;;;;;;;;6183122;23;20104;-66
2023/12/30 00:15:04;;;;;;;12.25;8.07;;;;;;;;;;6184800;23;20021;-66
2023/12/30 00:17:32;;;;;;;14.25;8.77;;;;;;;;;;6184449;23;20331;-65
2023/12/30 00:19:59;;;;;;;14.15;8.68;;;;;;;;;;6185067;23;20040;-66
2023/12/30 00:22:27;;;;;;;13.98;9.30;;;;;;;;;;6184491;23;20355;-66
2023/12/30 00:24:55;;;;;;;14.55;8.93;;;;;;;;;;6184686;23;20096;-66
2023/12/30 00:27:22;;;;;;;12.07;8.85;;;;;;;;;;6184601;23;20021;-66
2023/12/30 00:29:50;;;;;;;13.13;8.93;;;;;;;;;;6184003;23;20107;-66
2023/12/30 00:32:18;;;;;;;12.75;8.43;;;;;;;;;;6186540;23;20491;-66
2023/12/30 00:34:47;;;;;;;15.30;9.02;;;;;;;;;;6184895;23;20107;-66
2023/12/30 00:37:18;;;;;;;15.30;9.27;;;;;;;;;;6184929;23;20067;-66
2023/12/30 00:39:47;;;;;;;15.15;9.68;;;;;;;;;;6185209;23;20080;-66
2023/12/30 00:42:15;;;;;;;15.27;9.68;;;;;;;;;;6184852;23;20339;-66
2023/12/30 00:44:42;;;;;;;14.60;9.80;;;;;;;;;;6186273;23;20088;-66
2023/12/30 00:47:11;;;;;;;17.85;9.27;;;;;;;;;;6186479;23;20064;-66
2023/12/30 00:49:40;;;;;;;14.60;9.10;;;;;;;;;;6184650;23;20025;-66
2023/12/30 00:52:07;;;;;;;17.13;9.23;;;;;;;;;;6186318;23;20462;-66
2023/12/30 00:54:35;;;;;;;14.15;8.80;;;;;;;;;;6184439;23;20017;-66
2023/12/30 00:57:14;;;;;;;11.93;8.35;;;;;;;;;;6184755;23;20071;-66
2023/12/30 00:59:42;;;;;;;15.65;8.57;;;;;;;;;;6184698;23;20487;-65
2023/12/30 01:02:09;;;;;;;12.90;8.02;;;;;;;;;;6184741;23;20379;-66
2023/12/30 01:04:37;;;;;;;11.05;7.55;;;;;;;;;;6186036;23;20013;-66
2023/12/30 01:07:05;;;;;;;12.00;8.40;;;;;;;;;;6186277;23;20021;-66
2023/12/30 01:09:32;;;;;;;13.65;8.25;;;;;;;;;;6184494;23;20096;-66
2023/12/30 01:12:00;;;;;;;14.38;9.05;;;;;;;;;;6186317;23;20013;-66
2023/12/30 01:14:28;;;;;;;15.88;8.90;;;;;;;;;;6186070;23;20025;-66
2023/12/30 01:16:55;;;;;;;12.23;8.20;;;;;;;;;;6184524;23;20024;-66
2023/12/30 01:19:24;;;;;;;13.75;8.05;;;;;;;;;;6184542;23;20021;-65
2023/12/30 01:21:52;;;;;;;12.88;8.35;;;;;;;;;;6184306;23;20074;-66
2023/12/30 01:24:20;;;;;;;12.70;8.18;;;;;;;;;;6186149;23;20021;-66
2023/12/30 01:26:48;;;;;;;12.30;8.48;;;;;;;;;;6184436;23;20032;-66
2023/12/30 01:29:15;;;;;;;12.85;8.43;;;;;;;;;;6184360;23;20024;-66
2023/12/30 01:31:43;;;;;;;16.65;9.63;;;;;;;;;;6159846;23;20351;-66
2023/12/30 01:34:11;;;;;;;13.88;8.77;;;;;;;;;;6185676;23;20023;-66
2023/12/30 01:36:39;;;;;;;15.70;9.05;;;;;;;;;;6184330;23;20101;-66
2023/12/30 01:39:06;;;;;;;11.95;8.45;;;;;;;;;;6184199;23;20021;-65
2023/12/30 01:41:34;;;;;;;15.20;8.82;;;;;;;;;;6184125;23;20021;-66
2023/12/30 01:44:01;;;;;;;15.90;8.82;;;;;;;;;;6184226;23;20404;-66
2023/12/30 01:46:29;;;;;;;14.40;8.57;;;;;;;;;;6184316;23;20024;-66
2023/12/30 01:48:57;;;;;;;15.45;10.05;;;;;;;;;;6159355;23;20021;-66
2023/12/30 01:51:25;;;;;;;13.00;8.40;;;;;;;;;;6185649;23;20068;-65
2023/12/30 01:53:53;;;;;;;15.98;8.82;;;;;;;;;;6185660;23;20075;-66
2023/12/30 01:56:21;;;;;;;16.05;9.07;;;;;;;;;;6159432;23;20021;-66
2023/12/30 01:58:50;;;;;;;16.88;9.02;;;;;;;;;;6183994;23;20025;-66
2023/12/30 02:01:18;;;;;;;16.20;8.73;;;;;;;;;;6184142;23;20041;-66
2023/12/30 02:03:47;;;;;;;14.38;8.88;;;;;;;;;;6185724;23;20021;-66
2023/12/30 02:06:14;;;;;;;13.32;8.80;;;;;;;;;;6185482;23;20088;-66
2023/12/30 02:08:42;;;;;;;12.35;8.85;;;;;;;;;;6183997;23;20037;-66
2023/12/30 02:11:10;;;;;;;17.45;9.43;;;;;;;;;;6183895;23;20100;-66
2023/12/30 02:13:41;;;;;;;15.43;8.32;;;;;;;;;;6185468;23;20017;-66
2023/12/30 02:16:10;;;;;;;12.57;8.25;;;;;;;;;;6185449;23;20021;-66
2023/12/30 02:18:38;;;;;;;14.20;8.57;;;;;;;;;;6184039;23;20021;-66
2023/12/30 02:21:06;;;;;;;13.98;8.32;;;;;;;;;;6183960;23;20108;-66
2023/12/30 02:23:33;;;;;;;14.73;9.13;;;;;;;;;;6183796;23;20021;-66
2023/12/30 02:26:02;;;;;;;15.73;9.02;;;;;;;;;;6183904;23;20340;-66
2023/12/30 02:28:29;;;;;;;15.07;8.77;;;;;;;;;;6183863;23;20440;-66
2023/12/30 02:30:57;;;;;;;14.90;9.15;;;;;;;;;;6183834;23;20040;-65
2023/12/30 02:33:25;;;;;;;14.25;8.88;;;;;;;;;;6183632;23;20068;-66
2023/12/30 02:35:53;;;;;;;14.18;8.93;;;;;;;;;;6183903;23;20049;-66
2023/12/30 02:38:20;;;;;;;15.63;9.45;;;;;;;;;;6184185;23;20471;-66
2023/12/30 02:40:48;;;;;;;14.77;9.05;;;;;;;;;;6183688;23;20537;-66
2023/12/30 02:43:15;;;;;;;15.63;9.50;;;;;;;;;;6183768;23;20025;-66
2023/12/30 02:45:43;;;;;;;12.52;8.35;;;;;;;;;;6185363;23;20017;-66
2023/12/30 02:48:10;;;;;;;14.10;8.73;;;;;;;;;;6184126;23;20088;-66
2023/12/30 02:50:38;;;;;;;15.80;9.48;;;;;;;;;;6185018;23;20075;-66
2023/12/30 02:53:06;;;;;;;14.13;8.68;;;;;;;;;;6184770;23;20017;-66
2023/12/30 02:55:33;;;;;;;14.02;8.48;;;;;;;;;;6183749;23;20025;-66
2023/12/30 02:58:02;;;;;;;15.93;9.55;;;;;;;;;;6183640;23;20039;-66
2023/12/30 03:00:31;;;;;;;13.88;8.70;;;;;;;;;;6185031;23;20041;-66
2023/12/30 03:02:58;;;;;;;17.73;9.05;;;;;;;;;;6183683;23;20631;-66
2023/12/30 03:05:27;;;;;;;16.77;9.90;;;;;;;;;;6159232;23;20384;-66
2023/12/30 03:07:58;;;;;;;14.25;9.57;;;;;;;;;;6185069;23;20017;-66
2023/12/30 03:10:26;;;;;;;15.63;9.15;;;;;;;;;;6183424;23;20021;-66
2023/12/30 03:12:54;;;;;;;17.77;9.70;;;;;;;;;;6183518;23;20340;-66
2023/12/30 03:15:21;;;;;;;15.85;9.82;;;;;;;;;;6183384;23;20017;-66
2023/12/30 03:17:49;;;;;;;13.80;9.40;;;;;;;;;;6184976;23;20269;-66
2023/12/30 03:20:16;;;;;;;14.93;9.57;;;;;;;;;;6183409;23;20317;-65
2023/12/30 03:22:44;;;;;;;14.45;9.32;;;;;;;;;;6184941;23;20067;-66
2023/12/30 03:25:12;;;;;;;14.55;9.27;;;;;;;;;;6183366;23;20048;-66
2023/12/30 03:27:39;;;;;;;17.73;10.07;;;;;;;;;;6183516;23;20021;-66
2023/12/30 03:30:07;;;;;;;18.05;9.95;;;;;;;;;;6183102;23;20052;-64
2023/12/30 03:32:35;;;;;;;17.42;9.98;;;;;;;;;;6183407;23;20096;-66
2023/12/30 03:35:03;;;;;;;14.65;9.65;;;;;;;;;;6185078;23;20093;-64
2023/12/30 03:37:31;;;;;;;14.15;9.82;;;;;;;;;;6183427;23;20028;-64
2023/12/30 03:39:58;;;;;;;17.17;10.30;;;;;;;;;;6183210;23;20036;-65
2023/12/30 03:42:27;;;;;;;14.50;10.10;;;;;;;;;;6183217;23;20024;-65
2023/12/30 03:44:54;;;;;;;20.27;10.75;;;;;;;;;;6183350;23;20024;-65
2023/12/30 03:47:22;;;;;;;18.85;10.73;;;;;;;;;;6184904;23;20439;-65
2023/12/30 03:49:50;;;;;;;17.83;11.57;;;;;;;;;;6183023;23;20021;-65
2023/12/30 03:52:17;;;;;;;20.17;11.00;;;;;;;;;;6184838;23;20017;-65
2023/12/30 03:54:45;;;;;;;16.10;10.85;;;;;;;;;;6184435;23;20012;-65
2023/12/30 03:57:13;;;;;;;17.48;11.15;;;;;;;;;;6158797;23;20072;-65
2023/12/30 03:59:41;;;;;;;18.80;10.73;;;;;;;;;;6184975;23;20317;-65
2023/12/30 04:02:08;;;;;;;17.83;11.52;;;;;;;;;;6183295;23;20044;-65
2023/12/30 04:04:36;;;;;;;17.23;10.75;;;;;;;;;;6185884;23;20021;-65
2023/12/30 04:07:04;;;;;;;18.70;10.90;;;;;;;;;;6185108;23;20324;-65
2023/12/30 04:09:31;;;;;;;17.20;10.32;;;;;;;;;;6185181;23;20084;-65
2023/12/30 04:11:59;;;;;;;19.13;11.02;;;;;;;;;;6186778;23;20015;-65
2023/12/30 04:14:26;;;;;;;19.90;11.45;;;;;;;;;;6184684;23;20020;-65
2023/12/30 04:16:54;;;;;;;16.13;10.40;;;;;;;;;;6185008;23;20510;-65
2023/12/30 04:19:23;;;;;;;19.08;11.40;;;;;;;;;;6184880;23;20017;-65
2023/12/30 04:21:51;;;;;;;20.08;12.00;;;;;;;;;;6185112;23;20075;-65
2023/12/30 04:24:19;;;;;;;19.65;11.68;;;;;;;;;;6186563;23;20037;-65
2023/12/30 04:26:47;;;;;;;22.35;12.38;;;;;;;;;;6184869;23;20025;-64
2023/12/30 04:29:14;;;;;;;18.23;11.23;;;;;;;;;;6160330;23;20096;-64
2023/12/30 04:31:42;;;;;;;17.58;10.85;;;;;;;;;;6160281;23;20027;-64
2023/12/30 04:34:10;;;;;;;18.73;11.30;;;;;;;;;;6186546;23;20092;-64
2023/12/30 04:36:37;;;;;;;16.52;10.50;;;;;;;;;;6160273;23;20448;-64
2023/12/30 04:39:05;;;;;;;17.42;10.77;;;;;;;;;;6184647;23;20025;-64
2023/12/30 04:41:33;;;;;;;18.88;10.82;;;;;;;;;;6186454;23;20013;-64
2023/12/30 04:44:00;;;;;;;18.27;11.18;;;;;;;;;;6184771;23;20027;-64
2023/12/30 04:46:28;;;;;;;20.60;11.57;;;;;;;;;;6184814;23;20016;-64
2023/12/30 04:48:56;;;;;;;20.83;12.40;;;;;;;;;;6184479;23;20013;-65
2023/12/30 04:51:23;;;;;;;20.90;12.35;;;;;;;;;;6184587;23;20440;-65
2023/12/30 04:53:51;;;;;;;19.95;12.82;;;;;;;;;;6184293;23;20025;-65
2023/12/30 04:56:19;;;;;;;21.33;12.05;;;;;;;;;;6184717;23;20028;-65
2023/12/30 04:58:46;;;;;;;19.75;12.23;;;;;;;;;;6184572;23;20021;-65
2023/12/30 05:01:14;;;;;;;21.58;12.05;;;;;;;;;;6184693;23;20052;-66
2023/12/30 05:03:42;;;;;;;21.33;12.82;;;;;;;;;;6184776;23;20047;-65
2023/12/30 05:06:22;;;;;;;17.65;11.57;;;;;;;;;;6184443;23;20104;-66
2023/12/30 05:08:50;;;;;;;17.83;12.55;;;;;;;;;;6186204;23;20027;-65
2023/12/30 05:11:18;;;;;;;25.30;12.95;;;;;;;;;;6186004;23;20478;-65
2023/12/30 05:13:46;;;;;;;19.08;12.50;;;;;;;;;;6184492;23;20021;-67
2023/12/30 05:16:13;;;;;;;25.08;12.93;;;;;;;;;;6185712;23;20088;-65
2023/12/30 05:18:41;;;;;;;21.50;14.00;;;;;;;;;;6186415;23;20436;-65
2023/12/30 05:21:15;;;;;;;21.75;13.65;;;;;;;;;;6185910;23;20072;-65
2023/12/30 05:23:43;;;;;;;29.55;16.35;;;;;;;;;;6186027;23;20040;-66
2023/12/30 05:26:14;;;;;;;29.77;15.68;;;;;;;;;;6186418;23;20079;-65
2023/12/30 05:28:42;;;;;;;28.10;16.48;;;;;;;;;;6184424;23;20428;-65
2023/12/30 05:31:10;;;;;;;40.58;22.55;;;;;;;;;;6185879;23;20028;-65
2023/12/30 05:33:37;;;;;;;36.92;20.10;;;;;;;;;;6186043;23;20013;-65
2023/12/30 05:36:05;;;;;;;37.53;20.02;;;;;;;;;;6185958;23;20027;-65
2023/12/30 05:38:33;;;;;;;29.75;18.20;;;;;;;;;;6184319;23;20017;-65
2023/12/30 05:41:00;;;;;;;24.40;15.52;;;;;;;;;;6185946;23;20384;-65
2023/12/30 05:43:28;;;;;;;31.98;18.13;;;;;;;;;;6186026;23;20013;-65
2023/12/30 05:45:55;;;;;;;26.67;16.02;;;;;;;;;;6184744;23;20071;-65
2023/12/30 05:48:23;;;;;;;26.55;15.88;;;;;;;;;;6185816;23;20013;-65
2023/12/30 05:50:51;;;;;;;27.33;16.10;;;;;;;;;;6185692;23;20017;-65
2023/12/30 05:53:18;;;;;;;21.70;15.00;;;;;;;;;;6185870;23;20100;-65
2023/12/30 05:55:46;;;;;;;20.98;14.60;;;;;;;;;;6185841;23;20023;-66
2023/12/30 05:58:13;;;;;;;25.80;15.18;;;;;;;;;;6185695;23;20024;-65
2023/12/30 06:00:41;;;;;;;22.35;15.07;;;;;;;;;;6185601;23;20021;-65
2023/12/30 06:03:12;;;;;;;24.10;14.00;;;;;;;;;;6186063;23;20025;-65
2023/12/30 06:05:40;;;;;;;26.33;17.60;;;;;;;;;;6184018;23;20317;-65
2023/12/30 06:08:08;;;;;;;27.63;17.50;;;;;;;;;;6185817;23;20021;-65
2023/12/30 06:10:36;;;;;;;35.17;22.92;;;;;;;;;;6185335;23;20685;-65
2023/12/30 06:13:04;;;;;;;31.17;21.80;;;;;;;;;;6185620;23;20023;-65
2023/12/30 06:15:32;;;;;;;32.58;21.02;;;;;;;;;;6185322;23;20017;-65
2023/12/30 06:18:00;;;;;;;32.70;18.75;;;;;;;;;;6185687;23;20317;-65
2023/12/30 06:20:28;;;;;;;62.92;38.30;;;;;;;;;;6184081;23;20470;-66
2023/12/30 06:22:56;;;;;;;68.97;44.10;;;;;;;;;;6185450;23;20023;-65
2023/12/30 06:25:23;;;;;;;62.10;38.08;;;;;;;;;;6185519;23;20021;-65
2023/12/30 06:27:51;;;;;;;68.20;36.10;;;;;;;;;;6185304;23;20084;-66
2023/12/30 06:30:18;;;;;;;60.67;34.55;;;;;;;;;;6183778;23;20639;-66
2023/12/30 06:32:46;;;;;;;65.68;36.17;;;;;;;;;;6185194;23;20436;-65
2023/12/30 06:35:14;;;;;;;68.35;39.85;;;;;;;;;;6185224;23;20021;-65
2023/12/30 06:37:41;;;;;;;72.90;39.25;;;;;;;;;;6185321;23;20013;-65
2023/12/30 06:40:09;;;;;;;64.72;39.40;;;;;;;;;;6183593;23;20028;-65
2023/12/30 06:42:37;;;;;;;61.33;40.80;;;;;;;;;;6185234;23;20021;-65
2023/12/30 06:45:04;;;;;;;87.22;59.47;;;;;;;;;;6183799;23;20083;-66
2023/12/30 06:47:32;;;;;;;70.55;47.25;;;;;;;;;;6185070;23;20392;-66
2023/12/30 06:49:59;;;;;;;80.57;52.88;;;;;;;;;;6184602;23;20013;-67
2023/12/30 06:52:27;;;;;;;99.60;66.03;;;;;;;;;;6185082;23;20027;-66
2023/12/30 06:54:55;;;;;;;80.20;54.92;;;;;;;;;;6185089;23;20028;-66
2023/12/30 06:57:41;;;;;;;85.10;59.10;;;;;;;;;;6184772;23;20027;-66
2023/12/30 07:00:09;;;;;;;81.28;54.63;;;;;;;;;;6184935;23;20017;-66
2023/12/30 07:02:36;;;;;;;74.78;46.72;;;;;;;;;;6184990;23;20456;-66
2023/12/30 07:05:04;;;;;;;73.28;47.38;;;;;;;;;;6184949;23;20435;-65
2023/12/30 07:07:32;;;;;;;61.20;38.63;;;;;;;;;;6184831;23;20024;-65
2023/12/30 07:10:00;;;;;;;67.22;43.72;;;;;;;;;;6184836;23;20021;-65
2023/12/30 07:12:27;;;;;;;67.15;43.20;;;;;;;;;;6184391;23;20017;-65
2023/12/30 07:14:55;;;;;;;65.70;40.70;;;;;;;;;;6184731;23;20028;-66
2023/12/30 07:17:22;;;;;;;61.65;40.15;;;;;;;;;;6185037;23;20013;-65
2023/12/30 07:19:50;;;;;;;58.85;38.60;;;;;;;;;;6183505;23;20485;-65
2023/12/30 07:22:19;;;;;;;58.75;39.47;;;;;;;;;;6185045;23;20017;-65
2023/12/30 07:24:47;;;;;;;71.55;43.47;;;;;;;;;;6184675;23;20386;-65
2023/12/30 07:27:15;;;;;;;78.88;46.95;;;;;;;;;;6184982;23;20435;-66
2023/12/30 07:29:42;;;;;;;69.40;41.72;;;;;;;;;;6184775;23;20313;-67
2023/12/30 07:32:10;;;;;;;69.82;40.33;;;;;;;;;;6184624;23;20017;-63
2023/12/30 07:34:37;;;;;;;58.25;34.05;;;;;;;;;;6184630;23;20436;-63
2023/12/30 07:37:06;;;;;;;61.28;35.22;;;;;;;;;;6183535;23;20085;-62
2023/12/30 07:39:33;;;;;;;62.85;37.03;;;;;;;;;;6184605;23;20017;-63
2023/12/30 07:42:01;;;;;;;53.22;29.52;;;;;;;;;;6184638;23;20017;-63
2023/12/30 07:44:29;;;;;;;47.97;28.23;;;;;;;;;;6184082;23;20019;-63
2023/12/30 07:46:56;;;;;;;30.35;18.73;;;;;;;;;;6184483;23;20079;-63
2023/12/30 07:49:24;;;;;;;25.63;15.73;;;;;;;;;;6184577;23;20013;-63
2023/12/30 07:51:53;;;;;;;21.38;13.77;;;;;;;;;;6184577;23;20494;-63
2023/12/30 07:54:20;;;;;;;21.85;12.48;;;;;;;;;;6183087;23;20014;-63
2023/12/30 07:56:48;;;;;;;19.15;11.68;;;;;;;;;;6183021;23;20039;-63
2023/12/30 07:59:15;;;;;;;19.40;11.90;;;;;;;;;;6184905;23;20024;-63
2023/12/30 08:01:44;;;;;;;16.67;10.82;;;;;;;;;;6183044;23;20031;-62
2023/12/30 08:04:13;;;;;;;18.27;10.70;;;;;;;;;;6184684;23;20040;-62
2023/12/30 08:06:41;;;;;;;15.95;9.57;;;;;;;;;;6184882;23;20025;-61
2023/12/30 08:09:11;;;;;;;19.40;10.35;;;;;;;;;;6184941;23;20440;-61
2023/12/30 08:11:38;;;;;;;21.50;10.93;;;;;;;;;;6184542;23;20021;-66
2023/12/30 08:14:25;;;;;;;20.85;10.50;;;;;;;;;;6184751;23;20017;-64
2023/12/30 08:16:52;;;;;;;16.33;9.98;;;;;;;;;;6184446;23;20025;-65
2023/12/30 08:19:20;;;;;;;17.02;10.20;;;;;;;;;;6175388;23;20096;-66
2023/12/30 08:21:48;;;;;;;18.23;9.73;;;;;;;;;;6176379;23;20329;-65
2023/12/30 08:24:16;;;;;;;18.92;9.90;;;;;;;;;;6177665;23;20048;-65
2023/12/30 08:26:44;;;;;;;15.98;10.32;;;;;;;;;;6177589;23;20092;-65
2023/12/30 08:29:13;;;;;;;20.88;11.60;;;;;;;;;;6177638;23;20183;-64
2023/12/30 08:31:47;;;;;;;20.65;11.82;;;;;;;;;;6177603;23;20117;-65
2023/12/30 08:34:15;;;;;;;18.83;11.75;;;;;;;;;;6176451;23;20025;-64
2023/12/30 08:36:44;;;;;;;20.02;11.95;;;;;;;;;;6178044;23;20523;-64
2023/12/30 08:39:12;;;;;;;20.38;11.07;;;;;;;;;;6177251;23;20037;-63
2023/12/30 08:41:41;;;;;;;17.33;11.30;;;;;;;;;;6175706;23;20021;-63
2023/12/30 08:44:09;;;;;;;18.48;12.10;;;;;;;;;;6178395;23;20025;-63
2023/12/30 08:46:37;;;;;;;14.57;10.20;;;;;;;;;;6178058;23;20024;-63
2023/12/30 08:49:04;;;;;;;17.38;11.65;;;;;;;;;;6177602;23;20533;-63
2023/12/30 08:51:37;;;;;;;16.63;11.35;;;;;;;;;;6178778;23;20024;-63
2023/12/30 08:54:04;;;;;;;17.52;11.05;;;;;;;;;;6178957;23;20040;-63
2023/12/30 08:56:33;;;;;;;18.88;12.43;;;;;;;;;;6179559;23;20024;-63
2023/12/30 08:59:01;;;;;;;18.85;11.65;;;;;;;;;;6179880;23;20108;-63
2023/12/30 09:01:30;;;;;;;17.02;12.10;;;;;;;;;;6179087;23;20395;-65
2023/12/30 09:03:59;;;;;;;21.60;12.05;;;;;;;;;;6153780;23;20012;-65
2023/12/30 09:06:28;;;;;;;19.92;11.85;;;;;;;;;;6179312;23;20079;-66
2023/12/30 09:08:56;;;;;;;19.50;11.90;;;;;;;;;;6178607;23;20017;-65
2023/12/30 09:11:24;;;;;;;23.77;13.80;;;;;;;;;;6178122;23;20025;-65
2023/12/30 09:13:51;;;;;;;20.77;13.18;;;;;;;;;;6180090;23;20017;-65
2023/12/30 09:16:20;;;;;;;23.23;12.52;;;;;;;;;;6179733;23;20075;-65
2023/12/30 09:18:47;;;;;;;23.75;12.32;;;;;;;;;;6179172;23;20021;-65
2023/12/30 09:21:15;;;;;;;20.50;12.70;;;;;;;;;;6179376;23;20021;-66
2023/12/30 09:23:43;;;;;;;19.65;12.77;;;;;;;;;;6177518;23;20028;-64
2023/12/30 09:26:12;;;;;;;19.67;11.00;;;;;;;;;;6179062;23;20033;-65
2023/12/30 09:28:40;;;;;;;15.30;10.82;;;;;;;;;;6179659;23;20024;-64
2023/12/30 09:31:08;;;;;;;16.27;11.63;;;;;;;;;;6177564;23;20436;-64
2023/12/30 09:33:35;;;;;;;16.33;10.73;;;;;;;;;;6179548;23;20017;-65
2023/12/30 09:36:04;;;;;;;19.73;11.05;;;;;;;;;;6179288;23;20024;-64
2023/12/30 09:38:32;;;;;;;16.90;11.30;;;;;;;;;;6180023;23;20021;-64
2023/12/30 09:41:00;;;;;;;16.55;10.63;;;;;;;;;;6177882;23;20021;-65
2023/12/30 09:43:28;;;;;;;19.15;11.98;;;;;;;;;;6178430;23;20025;-64
2023/12/30 09:45:56;;;;;;;17.42;10.68;;;;;;;;;;6179453;23;20021;-64
2023/12/30 09:48:27;;;;;;;18.58;10.48;;;;;;;;;;6179292;23;20055;-64
2023/12/30 09:50:56;;;;;;;16.73;10.30;;;;;;;;;;6179092;23;20375;-64
2023/12/30 09:53:25;;;;;;;18.75;10.05;;;;;;;;;;6178793;23;20029;-64
2023/12/30 09:55:53;;;;;;;15.63;9.57;;;;;;;;;;6178869;23;20051;-64
2023/12/30 09:58:22;;;;;;;14.02;9.38;;;;;;;;;;6177724;23;20028;-65
2023/12/30 10:00:50;;;;;;;13.73;8.90;;;;;;;;;;6177683;23;20439;-65
2023/12/30 10:03:18;;;;;;;14.10;8.68;;;;;;;;;;6178566;23;20101;-64
2023/12/30 10:05:46;;;;;;;13.88;8.35;;;;;;;;;;6178770;23;20021;-65
2023/12/30 10:08:15;;;;;;;14.50;9.00;;;;;;;;;;6179307;23;20068;-64
2023/12/30 10:10:48;;;;;;;16.08;8.82;;;;;;;;;;6177469;23;20043;-65
2023/12/30 10:13:21;;;;;;;16.33;8.55;;;;;;;;;;6179346;23;20071;-65
2023/12/30 10:15:49;;;;;;;12.10;8.77;;;;;;;;;;6178818;23;20441;-64
2023/12/30 10:18:17;;;;;;;14.23;8.85;;;;;;;;;;6178729;23;20021;-64
2023/12/30 10:20:46;;;;;;;11.45;7.72;;;;;;;;;;6178867;23;20017;-64
2023/12/30 10:23:14;;;;;;;12.48;7.97;;;;;;;;;;6178697;23;20025;-64
2023/12/30 10:25:41;;;;;;;14.38;8.45;;;;;;;;;;6179050;23;20021;-64
2023/12/30 10:28:10;;;;;;;12.88;8.07;;;;;;;;;;6179465;23;20051;-64
2023/12/30 10:30:37;;;;;;;15.77;8.52;;;;;;;;;;6178793;23;20016;-63
2023/12/30 10:33:09;;;;;;;14.43;8.85;;;;;;;;;;6177415;23;20387;-63
2023/12/30 10:35:47;;;;;;;11.20;7.90;;;;;;;;;;6178975;23;20021;-64
2023/12/30 10:38:14;;;;;;;13.73;7.68;;;;;;;;;;6179138;23;20021;-64
2023/12/30 10:40:43;;;;;;;10.57;7.30;;;;;;;;;;6178841;23;20040;-64
2023/12/30 10:43:12;;;;;;;14.30;7.60;;;;;;;;;;6178548;23;20019;-64
2023/12/30 10:45:40;;;;;;;12.85;7.40;;;;;;;;;;6179189;23;20021;-65
2023/12/30 10:48:08;;;;;;;15.43;7.90;;;;;;;;;;6178752;23;20020;-64
2023/12/30 10:50:37;;;;;;;14.65;9.02;;;;;;;;;;6178850;23;20395;-65
2023/12/30 10:53:22;;;;;;;13.15;7.32;;;;;;;;;;6178587;23;20096;-65
2023/12/30 10:55:53;;;;;;;13.55;8.38;;;;;;;;;;6178613;23;20367;-65
2023/12/30 10:58:22;;;;;;;14.57;8.60;;;;;;;;;;6178485;23;20016;-65
2023/12/30 11:01:01;;;;;;;14.68;8.15;;;;;;;;;;6178324;23;20029;-65
2023/12/30 11:03:31;;;;;;;15.05;8.50;;;;;;;;;;6178526;23;20037;-65
2023/12/30 11:06:05;;;;;;;17.88;8.75;;;;;;;;;;6178246;23;20021;-65
2023/12/30 11:08:33;;;;;;;16.30;8.55;;;;;;;;;;6178425;23;20025;-65
2023/12/30 11:11:05;;;;;;;17.90;9.27;;;;;;;;;;6177352;23;20021;-66
2023/12/30 11:13:36;;;;;;;15.05;9.77;;;;;;;;;;6177390;23;20013;-66
2023/12/30 11:16:17;;;;;;;15.05;8.55;;;;;;;;;;6177401;23;20647;-66
2023/12/30 11:18:46;;;;;;;14.38;8.80;;;;;;;;;;6177670;23;20083;-66
2023/12/30 11:21:32;;;;;;;18.80;9.43;;;;;;;;;;6177650;23;20039;-65
2023/12/30 11:24:00;;;;;;;;;;;;;;;;;;6178036;23;20075;-65
2023/12/30 11:26:31;;;;;;;14.50;8.63;;;;;;;;;;6177492;23;20254;-66
2023/12/30 11:28:59;;;;;;;13.63;9.10;;;;;;;;;;6177238;23;20017;-66
2023/12/30 11:31:35;;;;;;;14.10;8.88;;;;;;;;;;6175999;23;20021;-66
2023/12/30 11:34:04;;;;;;;13.10;8.88;;;;;;;;;;6176297;23;20121;-66
2023/12/30 11:36:32;;;;;;;12.38;8.68;;;;;;;;;;6176653;23;20020;-66
2023/12/30 11:39:00;;;;;;;16.15;9.18;;;;;;;;;;6176544;23;20017;-66
2023/12/30 11:41:29;;;;;;;13.00;8.57;;;;;;;;;;6176347;23;20040;-67
2023/12/30 11:43:58;;;;;;;13.85;8.43;;;;;;;;;;6176417;23;20032;-65
2023/12/30 11:46:27;;;;;;;16.65;8.52;;;;;;;;;;6150732;23;20111;-65
2023/12/30 11:48:56;;;;;;;11.45;8.00;;;;;;;;;;6177559;23;20036;-65
2023/12/30 11:51:28;;;;;;;16.10;8.73;;;;;;;;;;6177272;23;20423;-64
2023/12/30 11:53:56;;;;;;;15.10;9.15;;;;;;;;;;6176770;23;20435;-66
2023/12/30 11:56:24;;;;;;;14.77;9.02;;;;;;;;;;6175770;23;20028;-67
2023/12/30 11:58:52;;;;;;;14.00;9.23;;;;;;;;;;6175742;23;20083;-65
2023/12/30 12:01:20;;;;;;;13.20;8.70;;;;;;;;;;6177918;23;20021;-65
2023/12/30 12:03:48;;;;;;;22.02;8.98;;;;;;;;;;6177236;23;20044;-65
2023/12/30 12:06:16;;;;;;;13.30;8.63;;;;;;;;;;6176854;23;20021;-64
2023/12/30 12:08:43;;;;;;;14.40;8.05;;;;;;;;;;6177212;23;20448;-65
2023/12/30 12:11:11;;;;;;;13.93;8.48;;;;;;;;;;6177526;23;20025;-65
2023/12/30 12:13:39;;;;;;;13.45;8.02;;;;;;;;;;6176763;23;20020;-66
2023/12/30 12:16:07;;;;;;;13.80;8.63;;;;;;;;;;6176039;23;20100;-66
2023/12/30 12:18:35;;;;;;;15.50;8.77;;;;;;;;;;6176117;23;20017;-66
2023/12/30 12:21:11;;;;;;;13.52;8.23;;;;;;;;;;6176260;23;20033;-66
2023/12/30 12:23:41;;;;;;;16.52;8.13;;;;;;;;;;6176472;23;20118;-66
2023/12/30 12:26:09;;;;;;;12.50;8.23;;;;;;;;;;6176247;23;20104;-66
2023/12/30 12:28:37;;;;;;;11.65;8.02;;;;;;;;;;6178662;23;20031;-66
2023/12/30 12:31:07;;;;;;;16.15;8.25;;;;;;;;;;6177810;23;20021;-67
2023/12/30 12:33:36;;;;;;;17.80;8.77;;;;;;;;;;6177683;23;20092;-66
2023/12/30 12:36:04;;;;;;;14.68;9.27;;;;;;;;;;6177424;23;20025;-72
2023/12/30 12:38:32;;;;;;;10.30;6.80;;;;;;;;;;6178428;23;20407;-63
2023/12/30 12:41:00;;;;;;;13.70;7.00;;;;;;;;;;6179746;23;20021;-65
2023/12/30 12:43:27;;;;;;;9.88;6.50;;;;;;;;;;6179461;23;20031;-64
2023/12/30 12:45:55;;;;;;;11.88;6.80;;;;;;;;;;6179505;23;20079;-65
2023/12/30 12:48:23;;;;;;;12.60;7.82;;;;;;;;;;6179689;23;20055;-64
2023/12/30 12:50:55;;;;;;;13.65;7.07;;;;;;;;;;6179860;23;20021;-69
2023/12/30 12:53:23;;;;;;;15.40;8.38;;;;;;;;;;6180133;23;20044;-66
2023/12/30 12:55:51;;;;;;;10.15;6.30;;;;;;;;;;6179066;23;20024;-68
2023/12/30 12:58:18;;;;;;;11.50;7.45;;;;;;;;;;6182383;23;20017;-67
2023/12/30 13:00:46;;;;;;;12.68;7.25;;;;;;;;;;6179480;23;20027;-68
2023/12/30 13:03:14;;;;;;;14.20;6.30;;;;;;;;;;6181046;23;20040;-67
2023/12/30 13:05:41;;;;;;;11.60;7.25;;;;;;;;;;6185131;23;20020;-67
2023/12/30 13:08:09;;;;;;;15.32;7.60;;;;;;;;;;6184952;23;20016;-66
2023/12/30 13:10:41;;;;;;;13.00;7.65;;;;;;;;;;6186183;23;20024;-66
2023/12/30 13:13:09;;;;;;;11.07;7.07;;;;;;;;;;6184352;23;20052;-66
2023/12/30 13:15:37;;;;;;;10.85;7.55;;;;;;;;;;6186060;23;20017;-67
2023/12/30 13:18:09;;;;;;;15.52;7.88;;;;;;;;;;6186069;23;20328;-66
2023/12/30 13:20:38;;;;;;;12.48;7.63;;;;;;;;;;6185409;23;20017;-66
2023/12/30 13:23:09;;;;;;;12.13;7.35;;;;;;;;;;6184882;23;20088;-67
2023/12/30 13:25:37;;;;;;;16.50;7.38;;;;;;;;;;6183114;23;20028;-67
2023/12/30 13:28:06;;;;;;;13.30;7.47;;;;;;;;;;6185177;23;20017;-67
2023/12/30 13:30:34;;;;;;;13.80;7.70;;;;;;;;;;6185390;23;20092;-67
2023/12/30 13:33:04;;;;;;;14.05;7.90;;;;;;;;;;6185903;23;20024;-67
2023/12/30 13:35:37;;;;;;;12.63;8.05;;;;;;;;;;6185274;23;20075;-68
2023/12/30 13:38:24;;;;;;;12.48;8.43;;;;;;;;;;6183775;23;20025;-68
2023/12/30 13:40:58;;;;;;;12.70;8.52;;;;;;;;;;6185665;23;20088;-67
2023/12/30 13:43:26;;;;;;;13.35;7.85;;;;;;;;;;6184274;23;20064;-67
2023/12/30 13:46:02;;;;;;;15.23;8.43;;;;;;;;;;6185622;23;20021;-67
2023/12/30 13:51:21;;;;;;;12.70;7.88;;;;;;;;;;6143422;23;20075;-67
2023/12/30 13:53:48;;;;;;;13.68;8.65;;;;;;;;;;6184902;23;20036;-71
2023/12/30 13:56:18;;;;;;;14.27;8.88;;;;;;;;;;6185323;23;20024;-67
2023/12/30 13:58:49;;;;;;;16.25;8.65;;;;;;;;;;6185444;23;20027;-65
2023/12/30 14:01:20;;;;;;;13.40;8.00;;;;;;;;;;6185065;23;20095;-66
2023/12/30 14:03:50;;;;;;;13.75;8.77;;;;;;;;;;6185558;23;20040;-67
2023/12/30 14:06:20;;;;;;;13.57;8.40;;;;;;;;;;6185390;23;20027;-67
2023/12/30 14:08:49;;;;;;;16.48;9.30;;;;;;;;;;6183756;23;20021;-66
2023/12/30 14:11:33;;;;;;;11.98;8.80;;;;;;;;;;6185401;23;20024;-67
2023/12/30 14:14:04;;;;;;;15.60;9.18;;;;;;;;;;6185272;23;20017;-66
2023/12/30 14:16:32;;;;;;;14.50;9.25;;;;;;;;;;6185540;23;20013;-65
2023/12/30 14:18:59;;;;;;;16.48;10.13;;;;;;;;;;6182675;23;20451;-67
2023/12/30 14:21:27;;;;;;;16.70;10.80;;;;;;;;;;6175996;23;20071;-68
2023/12/30 14:23:54;;;;;;;14.70;9.88;;;;;;;;;;6177891;23;20095;-67
2023/12/30 14:26:22;;;;;;;16.48;10.95;;;;;;;;;;6178249;23;20092;-67
2023/12/30 14:28:50;;;;;;;17.23;10.55;;;;;;;;;;6176904;23;20474;-67
2023/12/30 14:31:18;;;;;;;21.55;12.20;;;;;;;;;;6176308;23;20028;-65
2023/12/30 14:33:46;;;;;;;21.15;12.40;;;;;;;;;;6177024;23;20021;-66
2023/12/30 14:36:15;;;;;;;43.53;19.02;;;;;;;;;;6175406;23;20372;-64